sensor_id;sensor_type;location;lat;lon;timestamp;P1;durP1;ratioP1;P2;durP2;ratioP2
37237;SDS011;23129;49.662;8.448;2023-08-17T00:02:12;1.60;;;1.38;;
37237;SDS011;23129;49.662;8.448;2023-08-17T00:04:40;2.33;;;1.80;;
37237;SDS011;23129;49.662;8.448;2023-08-17T00:07:09;2.45;;;1.70;;
37237;SDS011;23129;49.662;8.448;2023-08-17T00:09:38;2.75;;;1.73;;
37237;SDS011;23129;49.662;8.448;2023-08-17T00:12:08;1.80;;;1.70;;
37237;SDS011;23129;49.662;8.448;2023-08-17T00:14:37;9.48;;;1.75;;
37237;SDS011;23129;49.662;8.448;2023-08-17T00:17:05;2.78;;;1.80;;
37237;SDS011;23129;49.662;8.448;2023-08-17T00:19:34;7.70;;;1.65;;
37237;SDS011;23129;49.662;8.448;2023-08-17T00:22:03;2.00;;;1.75;;
37237;SDS011;23129;49.662;8.448;2023-08-17T00:24:31;2.42;;;2.13;;
37237;SDS011;23129;49.662;8.448;2023-08-17T00:27:01;2.13;;;1.90;;
37237;SDS011;23129;49.662;8.448;2023-08-17T00:29:31;3.60;;;1.73;;
37237;SDS011;23129;49.662;8.448;2023-08-17T00:32:01;3.28;;;1.75;;
37237;SDS011;23129;49.662;8.448;2023-08-17T00:34:30;4.60;;;1.92;;
37237;SDS011;23129;49.662;8.448;2023-08-17T00:36:59;6.07;;;1.90;;
37237;SDS011;23129;49.662;8.448;2023-08-17T00:39:28;3.17;;;1.85;;
37237;SDS011;23129;49.662;8.448;2023-08-17T00:41:57;2.17;;;1.83;;
37237;SDS011;23129;49.662;8.448;2023-08-17T00:44:27;2.47;;;2.13;;
37237;SDS011;23129;49.662;8.448;2023-08-17T00:46:55;3.47;;;1.45;;
37237;SDS011;23129;49.662;8.448;2023-08-17T00:49:24;3.25;;;1.60;;
37237;SDS011;23129;49.662;8.448;2023-08-17T00:51:53;4.10;;;2.03;;
37237;SDS011;23129;49.662;8.448;2023-08-17T00:54:23;7.75;;;1.73;;
37237;SDS011;23129;49.662;8.448;2023-08-17T00:56:53;4.90;;;1.52;;
37237;SDS011;23129;49.662;8.448;2023-08-17T00:59:22;3.30;;;1.75;;
37237;SDS011;23129;49.662;8.448;2023-08-17T01:01:53;8.40;;;2.00;;
37237;SDS011;23129;49.662;8.448;2023-08-17T01:04:22;2.10;;;1.63;;
37237;SDS011;23129;49.662;8.448;2023-08-17T01:06:51;4.97;;;1.90;;
37237;SDS011;23129;49.662;8.448;2023-08-17T01:09:19;12.52;;;1.90;;
37237;SDS011;23129;49.662;8.448;2023-08-17T01:11:49;3.45;;;1.65;;
37237;SDS011;23129;49.662;8.448;2023-08-17T01:14:27;2.88;;;1.67;;
37237;SDS011;23129;49.662;8.448;2023-08-17T01:17:04;2.35;;;1.90;;
37237;SDS011;23129;49.662;8.448;2023-08-17T01:19:40;5.82;;;2.33;;
37237;SDS011;23129;49.662;8.448;2023-08-17T01:22:11;3.83;;;2.15;;
37237;SDS011;23129;49.662;8.448;2023-08-17T01:27:15;6.07;;;2.17;;
37237;SDS011;23129;49.662;8.448;2023-08-17T01:29:43;3.30;;;2.65;;
37237;SDS011;23129;49.662;8.448;2023-08-17T01:32:12;3.28;;;2.50;;
37237;SDS011;23129;49.662;8.448;2023-08-17T01:34:56;3.13;;;2.15;;
37237;SDS011;23129;49.662;8.448;2023-08-17T01:37:29;2.53;;;2.25;;
37237;SDS011;23129;49.662;8.448;2023-08-17T01:40:03;3.83;;;2.08;;
37237;SDS011;23129;49.662;8.448;2023-08-17T01:42:34;2.92;;;2.63;;
37237;SDS011;23129;49.662;8.448;2023-08-17T01:45:04;4.30;;;2.67;;
37237;SDS011;23129;49.662;8.448;2023-08-17T01:47:34;7.00;;;2.35;;
37237;SDS011;23129;49.662;8.448;2023-08-17T01:50:04;13.45;;;3.10;;
37237;SDS011;23129;49.662;8.448;2023-08-17T01:52:33;8.05;;;3.25;;
37237;SDS011;23129;49.662;8.448;2023-08-17T01:55:04;5.32;;;2.88;;
37237;SDS011;23129;49.662;8.448;2023-08-17T01:57:35;6.72;;;3.10;;
37237;SDS011;23129;49.662;8.448;2023-08-17T02:00:04;3.13;;;2.78;;
37237;SDS011;23129;49.662;8.448;2023-08-17T02:02:39;4.10;;;2.85;;
37237;SDS011;23129;49.662;8.448;2023-08-17T02:05:10;3.95;;;2.47;;
37237;SDS011;23129;49.662;8.448;2023-08-17T02:07:39;5.65;;;2.67;;
37237;SDS011;23129;49.662;8.448;2023-08-17T02:10:09;8.32;;;3.05;;
37237;SDS011;23129;49.662;8.448;2023-08-17T02:12:38;5.53;;;3.08;;
37237;SDS011;23129;49.662;8.448;2023-08-17T02:15:07;3.28;;;2.97;;
37237;SDS011;23129;49.662;8.448;2023-08-17T02:17:36;12.35;;;3.10;;
37237;SDS011;23129;49.662;8.448;2023-08-17T02:20:06;3.88;;;3.05;;
37237;SDS011;23129;49.662;8.448;2023-08-17T02:22:35;4.43;;;2.95;;
37237;SDS011;23129;49.662;8.448;2023-08-17T02:25:05;10.05;;;3.50;;
37237;SDS011;23129;49.662;8.448;2023-08-17T02:27:35;5.82;;;3.58;;
37237;SDS011;23129;49.662;8.448;2023-08-17T02:30:04;4.72;;;3.30;;
37237;SDS011;23129;49.662;8.448;2023-08-17T02:32:34;9.15;;;3.80;;
37237;SDS011;23129;49.662;8.448;2023-08-17T02:35:02;7.60;;;3.92;;
37237;SDS011;23129;49.662;8.448;2023-08-17T02:37:31;7.57;;;3.63;;
37237;SDS011;23129;49.662;8.448;2023-08-17T02:40:00;5.97;;;4.43;;
37237;SDS011;23129;49.662;8.448;2023-08-17T02:42:29;4.47;;;4.05;;
37237;SDS011;23129;49.662;8.448;2023-08-17T02:44:59;6.10;;;3.80;;
37237;SDS011;23129;49.662;8.448;2023-08-17T02:47:28;5.65;;;3.67;;
37237;SDS011;23129;49.662;8.448;2023-08-17T02:49:57;7.75;;;4.32;;
37237;SDS011;23129;49.662;8.448;2023-08-17T02:52:26;5.45;;;4.18;;
37237;SDS011;23129;49.662;8.448;2023-08-17T02:54:55;6.65;;;4.55;;
37237;SDS011;23129;49.662;8.448;2023-08-17T02:57:23;10.35;;;5.25;;
37237;SDS011;23129;49.662;8.448;2023-08-17T02:59:52;5.80;;;3.97;;
37237;SDS011;23129;49.662;8.448;2023-08-17T03:02:22;6.68;;;3.92;;
37237;SDS011;23129;49.662;8.448;2023-08-17T03:04:51;9.40;;;4.97;;
37237;SDS011;23129;49.662;8.448;2023-08-17T03:07:21;9.85;;;4.55;;
37237;SDS011;23129;49.662;8.448;2023-08-17T03:09:50;10.32;;;5.90;;
37237;SDS011;23129;49.662;8.448;2023-08-17T03:12:18;8.48;;;4.75;;
37237;SDS011;23129;49.662;8.448;2023-08-17T03:14:47;10.40;;;5.43;;
37237;SDS011;23129;49.662;8.448;2023-08-17T03:17:16;17.42;;;6.50;;
37237;SDS011;23129;49.662;8.448;2023-08-17T03:19:46;11.40;;;7.00;;
37237;SDS011;23129;49.662;8.448;2023-08-17T03:22:15;18.25;;;7.13;;
37237;SDS011;23129;49.662;8.448;2023-08-17T03:24:44;17.88;;;7.93;;
37237;SDS011;23129;49.662;8.448;2023-08-17T03:27:12;16.25;;;7.97;;
37237;SDS011;23129;49.662;8.448;2023-08-17T03:29:41;22.23;;;8.18;;
37237;SDS011;23129;49.662;8.448;2023-08-17T03:32:10;22.73;;;8.93;;
37237;SDS011;23129;49.662;8.448;2023-08-17T03:34:38;20.50;;;9.38;;
37237;SDS011;23129;49.662;8.448;2023-08-17T03:37:09;20.48;;;9.02;;
37237;SDS011;23129;49.662;8.448;2023-08-17T03:39:39;24.02;;;10.80;;
37237;SDS011;23129;49.662;8.448;2023-08-17T03:42:08;27.45;;;10.77;;
37237;SDS011;23129;49.662;8.448;2023-08-17T03:44:36;23.95;;;10.13;;
37237;SDS011;23129;49.662;8.448;2023-08-17T03:47:05;23.50;;;10.10;;
37237;SDS011;23129;49.662;8.448;2023-08-17T03:49:34;31.23;;;11.05;;
37237;SDS011;23129;49.662;8.448;2023-08-17T03:52:02;27.77;;;11.93;;
37237;SDS011;23129;49.662;8.448;2023-08-17T03:54:33;27.20;;;11.90;;
37237;SDS011;23129;49.662;8.448;2023-08-17T03:57:01;21.50;;;10.45;;
37237;SDS011;23129;49.662;8.448;2023-08-17T03:59:30;22.65;;;10.40;;
37237;SDS011;23129;49.662;8.448;2023-08-17T04:01:59;22.25;;;10.30;;
37237;SDS011;23129;49.662;8.448;2023-08-17T04:04:28;24.30;;;11.02;;
37237;SDS011;23129;49.662;8.448;2023-08-17T04:06:57;27.08;;;11.00;;
37237;SDS011;23129;49.662;8.448;2023-08-17T04:09:26;22.15;;;11.38;;
37237;SDS011;23129;49.662;8.448;2023-08-17T04:11:56;32.30;;;11.80;;
37237;SDS011;23129;49.662;8.448;2023-08-17T04:14:24;37.22;;;12.18;;
37237;SDS011;23129;49.662;8.448;2023-08-17T04:16:54;29.15;;;11.77;;
37237;SDS011;23129;49.662;8.448;2023-08-17T04:19:24;24.00;;;11.48;;
37237;SDS011;23129;49.662;8.448;2023-08-17T04:21:53;26.30;;;11.10;;
37237;SDS011;23129;49.662;8.448;2023-08-17T04:24:22;27.23;;;11.38;;
37237;SDS011;23129;49.662;8.448;2023-08-17T04:26:50;29.75;;;11.98;;
37237;SDS011;23129;49.662;8.448;2023-08-17T04:29:21;29.58;;;12.15;;
37237;SDS011;23129;49.662;8.448;2023-08-17T04:31:50;33.85;;;12.90;;
37237;SDS011;23129;49.662;8.448;2023-08-17T04:34:19;41.78;;;13.98;;
37237;SDS011;23129;49.662;8.448;2023-08-17T04:36:48;37.55;;;13.82;;
37237;SDS011;23129;49.662;8.448;2023-08-17T04:39:17;41.38;;;12.98;;
37237;SDS011;23129;49.662;8.448;2023-08-17T04:41:46;31.52;;;12.38;;
37237;SDS011;23129;49.662;8.448;2023-08-17T04:44:21;43.00;;;13.30;;
37237;SDS011;23129;49.662;8.448;2023-08-17T04:46:50;42.35;;;14.00;;
37237;SDS011;23129;49.662;8.448;2023-08-17T04:49:18;38.65;;;13.38;;
37237;SDS011;23129;49.662;8.448;2023-08-17T04:51:47;36.95;;;13.52;;
37237;SDS011;23129;49.662;8.448;2023-08-17T04:54:16;34.38;;;11.70;;
37237;SDS011;23129;49.662;8.448;2023-08-17T04:56:44;41.97;;;13.82;;
37237;SDS011;23129;49.662;8.448;2023-08-17T04:59:13;39.00;;;13.40;;
37237;SDS011;23129;49.662;8.448;2023-08-17T05:01:43;36.22;;;12.55;;
37237;SDS011;23129;49.662;8.448;2023-08-17T05:04:12;35.45;;;11.40;;
37237;SDS011;23129;49.662;8.448;2023-08-17T05:06:42;37.40;;;12.07;;
37237;SDS011;23129;49.662;8.448;2023-08-17T05:09:11;36.22;;;14.00;;
37237;SDS011;23129;49.662;8.448;2023-08-17T05:11:40;32.65;;;12.63;;
37237;SDS011;23129;49.662;8.448;2023-08-17T05:14:10;34.33;;;12.55;;
37237;SDS011;23129;49.662;8.448;2023-08-17T05:16:38;31.05;;;12.63;;
37237;SDS011;23129;49.662;8.448;2023-08-17T05:19:08;32.80;;;12.27;;
37237;SDS011;23129;49.662;8.448;2023-08-17T05:21:37;35.20;;;13.25;;
37237;SDS011;23129;49.662;8.448;2023-08-17T05:24:07;38.90;;;12.82;;
37237;SDS011;23129;49.662;8.448;2023-08-17T05:26:36;33.03;;;13.50;;
37237;SDS011;23129;49.662;8.448;2023-08-17T05:29:05;33.55;;;13.02;;
37237;SDS011;23129;49.662;8.448;2023-08-17T05:31:33;41.20;;;14.38;;
37237;SDS011;23129;49.662;8.448;2023-08-17T05:34:09;37.53;;;13.73;;
37237;SDS011;23129;49.662;8.448;2023-08-17T05:36:39;41.30;;;13.20;;
37237;SDS011;23129;49.662;8.448;2023-08-17T05:39:07;42.50;;;13.00;;
37237;SDS011;23129;49.662;8.448;2023-08-17T05:41:36;38.50;;;13.38;;
37237;SDS011;23129;49.662;8.448;2023-08-17T05:44:05;35.08;;;12.63;;
37237;SDS011;23129;49.662;8.448;2023-08-17T05:46:34;38.70;;;13.98;;
37237;SDS011;23129;49.662;8.448;2023-08-17T05:49:03;37.63;;;12.73;;
37237;SDS011;23129;49.662;8.448;2023-08-17T05:51:33;25.08;;;11.73;;
37237;SDS011;23129;49.662;8.448;2023-08-17T05:54:02;30.17;;;11.93;;
37237;SDS011;23129;49.662;8.448;2023-08-17T05:56:32;26.13;;;10.45;;
37237;SDS011;23129;49.662;8.448;2023-08-17T05:59:01;22.92;;;10.55;;
37237;SDS011;23129;49.662;8.448;2023-08-17T06:01:29;26.45;;;10.13;;
37237;SDS011;23129;49.662;8.448;2023-08-17T06:03:58;25.50;;;10.50;;
37237;SDS011;23129;49.662;8.448;2023-08-17T06:06:28;18.13;;;8.55;;
37237;SDS011;23129;49.662;8.448;2023-08-17T06:08:58;15.45;;;8.38;;
37237;SDS011;23129;49.662;8.448;2023-08-17T06:11:27;16.02;;;8.15;;
37237;SDS011;23129;49.662;8.448;2023-08-17T06:13:56;13.20;;;7.05;;
37237;SDS011;23129;49.662;8.448;2023-08-17T06:16:24;22.30;;;9.18;;
37237;SDS011;23129;49.662;8.448;2023-08-17T06:18:53;22.15;;;7.90;;
37237;SDS011;23129;49.662;8.448;2023-08-17T06:21:22;16.30;;;7.75;;
37237;SDS011;23129;49.662;8.448;2023-08-17T06:23:50;23.25;;;7.20;;
37237;SDS011;23129;49.662;8.448;2023-08-17T06:26:20;17.33;;;7.80;;
37237;SDS011;23129;49.662;8.448;2023-08-17T06:28:49;13.48;;;7.75;;
37237;SDS011;23129;49.662;8.448;2023-08-17T06:31:17;13.77;;;7.70;;
37237;SDS011;23129;49.662;8.448;2023-08-17T06:33:46;14.55;;;7.28;;
37237;SDS011;23129;49.662;8.448;2023-08-17T06:36:14;14.35;;;7.50;;
37237;SDS011;23129;49.662;8.448;2023-08-17T06:38:43;20.30;;;7.70;;
37237;SDS011;23129;49.662;8.448;2023-08-17T06:41:11;16.40;;;7.65;;
37237;SDS011;23129;49.662;8.448;2023-08-17T06:43:41;16.52;;;8.07;;
37237;SDS011;23129;49.662;8.448;2023-08-17T06:46:10;18.77;;;9.18;;
37237;SDS011;23129;49.662;8.448;2023-08-17T06:48:39;16.90;;;8.48;;
37237;SDS011;23129;49.662;8.448;2023-08-17T06:51:08;21.25;;;9.52;;
37237;SDS011;23129;49.662;8.448;2023-08-17T06:53:37;16.58;;;9.35;;
37237;SDS011;23129;49.662;8.448;2023-08-17T06:56:05;24.77;;;11.32;;
37237;SDS011;23129;49.662;8.448;2023-08-17T06:58:34;22.80;;;11.35;;
37237;SDS011;23129;49.662;8.448;2023-08-17T07:01:04;21.10;;;10.10;;
37237;SDS011;23129;49.662;8.448;2023-08-17T07:03:32;22.70;;;10.50;;
37237;SDS011;23129;49.662;8.448;2023-08-17T07:06:01;20.85;;;11.52;;
37237;SDS011;23129;49.662;8.448;2023-08-17T07:08:30;24.65;;;10.82;;
37237;SDS011;23129;49.662;8.448;2023-08-17T07:10:59;23.00;;;10.18;;
37237;SDS011;23129;49.662;8.448;2023-08-17T07:13:30;26.90;;;11.82;;
37237;SDS011;23129;49.662;8.448;2023-08-17T07:15:59;23.65;;;12.25;;
37237;SDS011;23129;49.662;8.448;2023-08-17T07:18:29;23.60;;;11.55;;
37237;SDS011;23129;49.662;8.448;2023-08-17T07:20:58;24.08;;;12.32;;
37237;SDS011;23129;49.662;8.448;2023-08-17T07:23:26;27.52;;;11.93;;
37237;SDS011;23129;49.662;8.448;2023-08-17T07:25:55;28.42;;;12.55;;
37237;SDS011;23129;49.662;8.448;2023-08-17T07:28:23;27.30;;;12.40;;
37237;SDS011;23129;49.662;8.448;2023-08-17T07:30:52;22.40;;;12.30;;
37237;SDS011;23129;49.662;8.448;2023-08-17T07:33:20;23.80;;;12.07;;
37237;SDS011;23129;49.662;8.448;2023-08-17T07:35:50;22.08;;;11.82;;
37237;SDS011;23129;49.662;8.448;2023-08-17T07:38:21;17.73;;;11.10;;
37237;SDS011;23129;49.662;8.448;2023-08-17T07:40:49;20.58;;;10.98;;
37237;SDS011;23129;49.662;8.448;2023-08-17T07:43:18;16.50;;;9.43;;
37237;SDS011;23129;49.662;8.448;2023-08-17T07:45:52;22.05;;;11.40;;
37237;SDS011;23129;49.662;8.448;2023-08-17T07:48:21;18.27;;;10.50;;
37237;SDS011;23129;49.662;8.448;2023-08-17T07:50:52;23.95;;;11.10;;
37237;SDS011;23129;49.662;8.448;2023-08-17T07:53:21;19.10;;;9.73;;
37237;SDS011;23129;49.662;8.448;2023-08-17T07:55:49;18.10;;;9.63;;
37237;SDS011;23129;49.662;8.448;2023-08-17T07:58:21;18.55;;;9.65;;
37237;SDS011;23129;49.662;8.448;2023-08-17T08:00:50;15.95;;;7.50;;
37237;SDS011;23129;49.662;8.448;2023-08-17T08:03:19;20.35;;;9.45;;
37237;SDS011;23129;49.662;8.448;2023-08-17T08:05:48;20.77;;;9.48;;
37237;SDS011;23129;49.662;8.448;2023-08-17T08:08:18;14.93;;;8.32;;
37237;SDS011;23129;49.662;8.448;2023-08-17T08:10:47;16.05;;;9.77;;
37237;SDS011;23129;49.662;8.448;2023-08-17T08:13:16;20.15;;;9.35;;
37237;SDS011;23129;49.662;8.448;2023-08-17T08:15:44;13.27;;;9.05;;
37237;SDS011;23129;49.662;8.448;2023-08-17T08:18:13;17.80;;;8.35;;
37237;SDS011;23129;49.662;8.448;2023-08-17T08:20:42;15.32;;;8.13;;
37237;SDS011;23129;49.662;8.448;2023-08-17T08:23:10;19.35;;;8.98;;
37237;SDS011;23129;49.662;8.448;2023-08-17T08:25:40;22.05;;;9.30;;
37237;SDS011;23129;49.662;8.448;2023-08-17T08:28:09;13.95;;;8.63;;
37237;SDS011;23129;49.662;8.448;2023-08-17T08:30:37;11.02;;;7.75;;
37237;SDS011;23129;49.662;8.448;2023-08-17T08:33:06;9.95;;;7.70;;
37237;SDS011;23129;49.662;8.448;2023-08-17T08:35:35;12.48;;;7.97;;
37237;SDS011;23129;49.662;8.448;2023-08-17T08:38:03;12.35;;;8.00;;
37237;SDS011;23129;49.662;8.448;2023-08-17T08:40:32;12.95;;;7.45;;
37237;SDS011;23129;49.662;8.448;2023-08-17T08:43:05;8.80;;;7.53;;
37237;SDS011;23129;49.662;8.448;2023-08-17T08:45:36;7.28;;;5.88;;
37237;SDS011;23129;49.662;8.448;2023-08-17T08:48:11;10.32;;;6.13;;
37237;SDS011;23129;49.662;8.448;2023-08-17T08:50:41;5.78;;;5.18;;
37237;SDS011;23129;49.662;8.448;2023-08-17T08:53:10;14.15;;;5.38;;
37237;SDS011;23129;49.662;8.448;2023-08-17T08:55:44;12.63;;;5.65;;
37237;SDS011;23129;49.662;8.448;2023-08-17T08:58:16;12.85;;;6.57;;
37237;SDS011;23129;49.662;8.448;2023-08-17T09:00:46;9.05;;;6.90;;
37237;SDS011;23129;49.662;8.448;2023-08-17T09:03:15;8.45;;;6.18;;
37237;SDS011;23129;49.662;8.448;2023-08-17T09:05:47;28.17;;;7.43;;
37237;SDS011;23129;49.662;8.448;2023-08-17T09:08:20;11.25;;;6.20;;
37237;SDS011;23129;49.662;8.448;2023-08-17T09:10:50;8.10;;;6.18;;
37237;SDS011;23129;49.662;8.448;2023-08-17T09:13:20;10.82;;;6.53;;
37237;SDS011;23129;49.662;8.448;2023-08-17T09:15:48;9.93;;;6.05;;
37237;SDS011;23129;49.662;8.448;2023-08-17T09:18:17;7.15;;;5.50;;
37237;SDS011;23129;49.662;8.448;2023-08-17T09:20:47;6.60;;;5.45;;
37237;SDS011;23129;49.662;8.448;2023-08-17T09:23:20;6.97;;;4.93;;
37237;SDS011;23129;49.662;8.448;2023-08-17T09:25:49;15.80;;;4.50;;
37237;SDS011;23129;49.662;8.448;2023-08-17T09:28:25;7.00;;;5.03;;
37237;SDS011;23129;49.662;8.448;2023-08-17T09:30:56;7.60;;;5.97;;
37237;SDS011;23129;49.662;8.448;2023-08-17T09:33:27;4.85;;;4.10;;
37237;SDS011;23129;49.662;8.448;2023-08-17T09:35:57;5.93;;;4.50;;
37237;SDS011;23129;49.662;8.448;2023-08-17T09:38:27;4.68;;;3.55;;
37237;SDS011;23129;49.662;8.448;2023-08-17T09:40:56;10.77;;;4.28;;
37237;SDS011;23129;49.662;8.448;2023-08-17T09:43:27;9.05;;;4.22;;
37237;SDS011;23129;49.662;8.448;2023-08-17T09:46:00;6.10;;;3.33;;
37237;SDS011;23129;49.662;8.448;2023-08-17T09:48:30;4.95;;;3.35;;
37237;SDS011;23129;49.662;8.448;2023-08-17T09:50:59;13.68;;;3.10;;
37237;SDS011;23129;49.662;8.448;2023-08-17T09:53:29;4.13;;;3.60;;
37237;SDS011;23129;49.662;8.448;2023-08-17T09:56:02;3.20;;;2.90;;
37237;SDS011;23129;49.662;8.448;2023-08-17T09:58:33;5.63;;;3.47;;
37237;SDS011;23129;49.662;8.448;2023-08-17T10:01:02;4.05;;;3.05;;
37237;SDS011;23129;49.662;8.448;2023-08-17T10:03:33;4.63;;;3.30;;
37237;SDS011;23129;49.662;8.448;2023-08-17T10:06:04;3.40;;;3.13;;
37237;SDS011;23129;49.662;8.448;2023-08-17T10:08:33;7.22;;;3.22;;
37237;SDS011;23129;49.662;8.448;2023-08-17T10:11:09;4.18;;;2.65;;
37237;SDS011;23129;49.662;8.448;2023-08-17T10:13:42;5.18;;;2.78;;
37237;SDS011;23129;49.662;8.448;2023-08-17T10:16:17;8.25;;;2.30;;
37237;SDS011;23129;49.662;8.448;2023-08-17T10:18:58;2.92;;;2.30;;
37237;SDS011;23129;49.662;8.448;2023-08-17T10:21:34;3.30;;;2.45;;
37237;SDS011;23129;49.662;8.448;2023-08-17T10:24:07;5.45;;;1.90;;
37237;SDS011;23129;49.662;8.448;2023-08-17T10:26:36;2.78;;;2.55;;
37237;SDS011;23129;49.662;8.448;2023-08-17T10:29:06;3.25;;;2.30;;
37237;SDS011;23129;49.662;8.448;2023-08-17T10:31:43;2.20;;;2.10;;
37237;SDS011;23129;49.662;8.448;2023-08-17T10:34:13;4.40;;;3.00;;
37237;SDS011;23129;49.662;8.448;2023-08-17T10:36:42;2.33;;;2.13;;
37237;SDS011;23129;49.662;8.448;2023-08-17T10:39:18;8.00;;;2.38;;
37237;SDS011;23129;49.662;8.448;2023-08-17T10:41:54;3.38;;;2.63;;
37237;SDS011;23129;49.662;8.448;2023-08-17T10:44:43;2.90;;;2.35;;
37237;SDS011;23129;49.662;8.448;2023-08-17T10:47:19;6.43;;;2.00;;
37237;SDS011;23129;49.662;8.448;2023-08-17T10:49:50;2.50;;;1.92;;
37237;SDS011;23129;49.662;8.448;2023-08-17T10:52:25;2.45;;;2.25;;
37237;SDS011;23129;49.662;8.448;2023-08-17T10:54:55;2.65;;;1.80;;
37237;SDS011;23129;49.662;8.448;2023-08-17T10:57:30;1.85;;;1.60;;
37237;SDS011;23129;49.662;8.448;2023-08-17T11:00:09;3.72;;;1.77;;
37237;SDS011;23129;49.662;8.448;2023-08-17T11:02:46;1.90;;;1.80;;
37237;SDS011;23129;49.662;8.448;2023-08-17T11:08:09;3.55;;;2.30;;
37237;SDS011;23129;49.662;8.448;2023-08-17T11:10:46;2.60;;;2.20;;
37237;SDS011;23129;49.662;8.448;2023-08-17T11:13:17;2.72;;;1.92;;
37237;SDS011;23129;49.662;8.448;2023-08-17T11:15:47;3.20;;;1.85;;
37237;SDS011;23129;49.662;8.448;2023-08-17T11:18:15;2.30;;;1.70;;
37237;SDS011;23129;49.662;8.448;2023-08-17T11:20:44;3.22;;;2.20;;
37237;SDS011;23129;49.662;8.448;2023-08-17T11:23:13;2.40;;;2.20;;
37237;SDS011;23129;49.662;8.448;2023-08-17T11:25:42;1.98;;;1.77;;
37237;SDS011;23129;49.662;8.448;2023-08-17T11:28:11;2.53;;;2.20;;
37237;SDS011;23129;49.662;8.448;2023-08-17T11:30:41;4.78;;;2.53;;
37237;SDS011;23129;49.662;8.448;2023-08-17T11:33:14;1.70;;;1.58;;
37237;SDS011;23129;49.662;8.448;2023-08-17T11:35:43;2.10;;;1.90;;
37237;SDS011;23129;49.662;8.448;2023-08-17T11:38:12;6.88;;;2.08;;
37237;SDS011;23129;49.662;8.448;2023-08-17T11:40:40;4.28;;;1.92;;
37237;SDS011;23129;49.662;8.448;2023-08-17T11:43:09;1.98;;;1.80;;
37237;SDS011;23129;49.662;8.448;2023-08-17T11:45:38;2.08;;;1.90;;
37237;SDS011;23129;49.662;8.448;2023-08-17T11:48:08;3.38;;;2.20;;
37237;SDS011;23129;49.662;8.448;2023-08-17T11:50:39;1.98;;;1.88;;
37237;SDS011;23129;49.662;8.448;2023-08-17T11:53:08;2.42;;;2.22;;
37237;SDS011;23129;49.662;8.448;2023-08-17T11:55:36;3.55;;;2.10;;
37237;SDS011;23129;49.662;8.448;2023-08-17T11:58:05;2.25;;;1.98;;
37237;SDS011;23129;49.662;8.448;2023-08-17T12:00:36;3.38;;;2.35;;
37237;SDS011;23129;49.662;8.448;2023-08-17T12:03:07;4.05;;;2.42;;
37237;SDS011;23129;49.662;8.448;2023-08-17T12:05:36;4.95;;;2.53;;
37237;SDS011;23129;49.662;8.448;2023-08-17T12:08:07;4.63;;;2.65;;
37237;SDS011;23129;49.662;8.448;2023-08-17T12:10:36;3.63;;;2.65;;
37237;SDS011;23129;49.662;8.448;2023-08-17T12:13:05;4.25;;;2.60;;
37237;SDS011;23129;49.662;8.448;2023-08-17T12:15:38;3.58;;;2.35;;
37237;SDS011;23129;49.662;8.448;2023-08-17T12:18:06;2.78;;;2.00;;
37237;SDS011;23129;49.662;8.448;2023-08-17T12:20:35;2.25;;;2.08;;
37237;SDS011;23129;49.662;8.448;2023-08-17T12:23:06;2.22;;;2.10;;
37237;SDS011;23129;49.662;8.448;2023-08-17T12:25:34;2.17;;;2.08;;
37237;SDS011;23129;49.662;8.448;2023-08-17T12:28:03;3.60;;;1.95;;
37237;SDS011;23129;49.662;8.448;2023-08-17T12:30:32;2.65;;;1.65;;
37237;SDS011;23129;49.662;8.448;2023-08-17T12:33:02;9.75;;;3.50;;
37237;SDS011;23129;49.662;8.448;2023-08-17T12:35:32;3.47;;;2.60;;
37237;SDS011;23129;49.662;8.448;2023-08-17T12:38:00;4.30;;;1.98;;
37237;SDS011;23129;49.662;8.448;2023-08-17T12:40:30;1.95;;;1.80;;
37237;SDS011;23129;49.662;8.448;2023-08-17T12:42:59;4.75;;;1.95;;
37237;SDS011;23129;49.662;8.448;2023-08-17T12:45:27;3.65;;;1.90;;
37237;SDS011;23129;49.662;8.448;2023-08-17T12:47:57;1.77;;;1.67;;
37237;SDS011;23129;49.662;8.448;2023-08-17T12:50:26;2.30;;;1.80;;
37237;SDS011;23129;49.662;8.448;2023-08-17T12:52:55;3.10;;;2.45;;
37237;SDS011;23129;49.662;8.448;2023-08-17T12:55:24;2.10;;;1.55;;
37237;SDS011;23129;49.662;8.448;2023-08-17T12:57:54;5.80;;;2.05;;
37237;SDS011;23129;49.662;8.448;2023-08-17T13:02:55;2.50;;;2.25;;
37237;SDS011;23129;49.662;8.448;2023-08-17T13:05:24;2.85;;;2.58;;
37237;SDS011;23129;49.662;8.448;2023-08-17T13:07:53;3.80;;;2.67;;
37237;SDS011;23129;49.662;8.448;2023-08-17T13:10:21;2.20;;;2.10;;
37237;SDS011;23129;49.662;8.448;2023-08-17T13:12:50;5.10;;;2.20;;
37237;SDS011;23129;49.662;8.448;2023-08-17T13:15:22;2.72;;;2.25;;
37237;SDS011;23129;49.662;8.448;2023-08-17T13:17:51;7.47;;;2.22;;
37237;SDS011;23129;49.662;8.448;2023-08-17T13:20:20;3.85;;;1.92;;
37237;SDS011;23129;49.662;8.448;2023-08-17T13:22:49;3.13;;;2.47;;
37237;SDS011;23129;49.662;8.448;2023-08-17T13:25:18;10.88;;;2.10;;
37237;SDS011;23129;49.662;8.448;2023-08-17T13:27:46;3.30;;;2.00;;
37237;SDS011;23129;49.662;8.448;2023-08-17T13:30:15;4.90;;;1.98;;
37237;SDS011;23129;49.662;8.448;2023-08-17T13:32:45;2.17;;;2.08;;
37237;SDS011;23129;49.662;8.448;2023-08-17T13:35:14;2.20;;;1.88;;
37237;SDS011;23129;49.662;8.448;2023-08-17T13:37:43;2.42;;;2.10;;
37237;SDS011;23129;49.662;8.448;2023-08-17T13:40:12;4.22;;;2.00;;
37237;SDS011;23129;49.662;8.448;2023-08-17T13:42:41;2.10;;;1.73;;
37237;SDS011;23129;49.662;8.448;2023-08-17T13:45:10;4.57;;;2.20;;
37237;SDS011;23129;49.662;8.448;2023-08-17T13:47:38;1.73;;;1.27;;
37237;SDS011;23129;49.662;8.448;2023-08-17T13:50:09;2.33;;;1.77;;
37237;SDS011;23129;49.662;8.448;2023-08-17T13:52:37;5.28;;;1.90;;
37237;SDS011;23129;49.662;8.448;2023-08-17T13:55:06;1.90;;;1.80;;
37237;SDS011;23129;49.662;8.448;2023-08-17T13:57:35;2.00;;;1.73;;
37237;SDS011;23129;49.662;8.448;2023-08-17T14:00:05;4.93;;;2.30;;
37237;SDS011;23129;49.662;8.448;2023-08-17T14:02:35;4.68;;;1.95;;
37237;SDS011;23129;49.662;8.448;2023-08-17T14:05:04;3.05;;;2.10;;
37237;SDS011;23129;49.662;8.448;2023-08-17T14:07:34;5.20;;;1.77;;
37237;SDS011;23129;49.662;8.448;2023-08-17T14:10:03;8.13;;;2.20;;
37237;SDS011;23129;49.662;8.448;2023-08-17T14:12:36;2.80;;;2.20;;
37237;SDS011;23129;49.662;8.448;2023-08-17T14:15:05;2.47;;;2.00;;
37237;SDS011;23129;49.662;8.448;2023-08-17T14:17:34;6.07;;;1.98;;
37237;SDS011;23129;49.662;8.448;2023-08-17T14:20:03;2.03;;;1.83;;
37237;SDS011;23129;49.662;8.448;2023-08-17T14:22:34;7.75;;;1.83;;
37237;SDS011;23129;49.662;8.448;2023-08-17T14:25:03;2.30;;;1.75;;
37237;SDS011;23129;49.662;8.448;2023-08-17T14:27:33;3.17;;;2.00;;
37237;SDS011;23129;49.662;8.448;2023-08-17T14:30:01;1.88;;;1.70;;
37237;SDS011;23129;49.662;8.448;2023-08-17T14:32:31;2.70;;;1.38;;
37237;SDS011;23129;49.662;8.448;2023-08-17T14:35:01;4.78;;;1.80;;
37237;SDS011;23129;49.662;8.448;2023-08-17T14:37:30;2.50;;;1.40;;
37237;SDS011;23129;49.662;8.448;2023-08-17T14:40:01;3.45;;;1.48;;
37237;SDS011;23129;49.662;8.448;2023-08-17T14:42:29;2.67;;;1.75;;
37237;SDS011;23129;49.662;8.448;2023-08-17T14:44:58;2.08;;;1.90;;
37237;SDS011;23129;49.662;8.448;2023-08-17T14:47:32;2.75;;;1.77;;
37237;SDS011;23129;49.662;8.448;2023-08-17T14:50:01;1.80;;;1.70;;
37237;SDS011;23129;49.662;8.448;2023-08-17T14:52:30;1.83;;;1.73;;
37237;SDS011;23129;49.662;8.448;2023-08-17T14:55:01;3.80;;;1.88;;
37237;SDS011;23129;49.662;8.448;2023-08-17T14:57:31;2.40;;;1.80;;
37237;SDS011;23129;49.662;8.448;2023-08-17T14:59:59;7.72;;;1.48;;
37237;SDS011;23129;49.662;8.448;2023-08-17T15:02:28;3.17;;;1.75;;